Time;durP1;ratioP1;P1;durP2;ratioP2;P2;SDS_P1;SDS_P2;PMS_P1;PMS_P2;Temp;Humidity;BMP_temperature;BMP_pressure;BME280_temperature;BME280_humidity;BME280_pressure;Samples;Min_cycle;Max_cycle;Signal;HPM_P1;HPM_P2
2023/08/10 00:01:12;;;;;;;2.13;0.63;;;19.90;66.60;;;;;;5000967;28;20378;-64
2023/08/10 00:03:38;;;;;;;0.60;0.50;;;19.90;66.70;;;;;;5001795;28;20500;-65
2023/08/10 00:06:04;;;;;;;0.68;0.40;;;19.90;66.40;;;;;;4997236;28;20045;-65
2023/08/10 00:08:30;;;;;;;1.23;0.50;;;19.90;66.50;;;;;;4997190;28;20045;-62
2023/08/10 00:10:56;;;;;;;1.15;0.40;;;19.90;66.80;;;;;;4997071;28;20038;-67
2023/08/10 00:13:22;;;;;;;2.03;0.70;;;19.90;66.60;;;;;;4998950;28;20049;-63
2023/08/10 00:15:47;;;;;;;0.70;0.50;;;19.90;66.60;;;;;;5001061;28;20026;-66
2023/08/10 00:18:14;;;;;;;1.27;0.80;;;19.90;66.80;;;;;;5004219;28;20693;-66
2023/08/10 00:20:40;;;;;;;2.17;0.50;;;19.90;66.30;;;;;;5004749;28;20034;-62
2023/08/10 00:23:05;;;;;;;0.52;0.52;;;19.90;66.60;;;;;;5002458;28;20631;-67
2023/08/10 00:25:31;;;;;;;0.73;0.60;;;19.90;66.50;;;;;;4999457;28;20038;-63
2023/08/10 00:27:57;;;;;;;0.50;0.40;;;19.90;66.90;;;;;;5003944;28;20030;-64
2023/08/10 00:30:22;;;;;;;0.90;0.60;;;19.90;66.50;;;;;;5000047;28;20048;-62
2023/08/10 00:32:48;;;;;;;0.60;0.50;;;19.90;66.60;;;;;;4998719;28;20125;-66
2023/08/10 00:35:13;;;;;;;0.60;0.50;;;19.90;66.80;;;;;;5002836;28;20133;-67
2023/08/10 00:37:39;;;;;;;0.60;0.50;;;19.90;66.70;;;;;;5002833;28;20052;-66
2023/08/10 00:40:09;;;;;;;0.68;0.50;;;19.90;66.60;;;;;;5004141;28;20408;-62
2023/08/10 00:42:34;;;;;;;1.15;0.65;;;19.90;66.70;;;;;;5001592;28;20030;-68
2023/08/10 00:45:00;;;;;;;0.70;0.60;;;19.90;67.00;;;;;;5003575;28;20145;-63
2023/08/10 00:47:26;;;;;;;4.72;0.60;;;19.80;66.70;;;;;;5002084;28;20030;-63
2023/08/10 00:49:52;;;;;;;0.75;0.60;;;19.80;66.40;;;;;;4997517;28;20098;-67
2023/08/10 00:52:17;;;;;;;0.68;0.50;;;19.80;66.70;;;;;;5003555;28;20026;-67
2023/08/10 00:54:43;;;;;;;0.80;0.60;;;19.80;66.70;;;;;;5004269;28;20105;-64
2023/08/10 00:57:09;;;;;;;1.88;0.80;;;19.80;66.60;;;;;;5004969;28;20393;-68
2023/08/10 00:59:37;;;;;;;0.90;0.60;;;19.80;66.50;;;;;;5004849;28;20481;-67
2023/08/10 01:02:03;;;;;;;1.08;0.65;;;19.80;66.20;;;;;;5003081;28;20041;-63
2023/08/10 01:04:29;;;;;;;1.00;0.70;;;19.80;66.50;;;;;;5000952;28;20027;-66
2023/08/10 01:07:03;;;;;;;1.20;0.60;;;19.70;66.20;;;;;;4999682;28;20100;-69
2023/08/10 01:09:46;;;;;;;1.23;0.63;;;19.70;66.50;;;;;;4999620;28;20101;-68
2023/08/10 01:12:23;;;;;;;1.02;0.50;;;19.70;66.60;;;;;;4995090;28;20030;-68
2023/08/10 01:15:13;;;;;;;1.65;0.85;;;19.70;66.30;;;;;;4990922;28;20065;-67
2023/08/10 01:17:43;;;;;;;2.08;0.60;;;19.70;66.30;;;;;;4993849;28;20059;-64
2023/08/10 01:20:09;;;;;;;0.90;0.52;;;19.70;66.60;;;;;;4997538;28;20304;-62
2023/08/10 01:22:53;;;;;;;0.70;0.50;;;19.70;66.40;;;;;;4998979;28;20029;-68
2023/08/10 01:25:21;;;;;;;0.70;0.40;;;19.70;66.40;;;;;;4998935;28;20405;-68
2023/08/10 01:27:47;;;;;;;1.23;0.88;;;19.70;66.40;;;;;;5005426;28;20496;-68
2023/08/10 01:30:13;;;;;;;0.93;0.65;;;19.70;66.40;;;;;;5005203;28;20463;-64
2023/08/10 01:32:38;;;;;;;1.13;0.65;;;19.70;66.60;;;;;;5001650;28;20109;-68
2023/08/10 01:35:10;;;;;;;2.05;0.70;;;19.70;66.60;;;;;;5004018;28;20117;-68
2023/08/10 01:37:36;;;;;;;0.52;0.52;;;19.70;66.50;;;;;;5005262;28;20026;-67
2023/08/10 01:40:06;;;;;;;0.65;0.50;;;19.70;66.40;;;;;;5001799;28;20042;-68
2023/08/10 01:42:31;;;;;;;0.90;0.65;;;19.70;66.50;;;;;;4999517;28;20029;-68
2023/08/10 01:44:57;;;;;;;2.30;0.63;;;19.70;66.30;;;;;;5005174;28;20052;-67
2023/08/10 01:47:28;;;;;;;2.03;0.68;;;19.60;66.30;;;;;;5005826;28;20025;-65
2023/08/10 01:50:00;;;;;;;0.68;0.40;;;19.60;66.60;;;;;;4996382;28;20505;-66
2023/08/10 01:52:33;;;;;;;0.60;0.40;;;19.60;66.40;;;;;;4997678;28;20026;-68
2023/08/10 01:54:59;;;;;;;1.25;0.40;;;19.60;66.30;;;;;;4998899;28;20113;-67
2023/08/10 01:57:25;;;;;;;0.68;0.50;;;19.60;66.40;;;;;;4999607;28;20094;-63
2023/08/10 01:59:51;;;;;;;0.90;0.60;;;19.60;66.30;;;;;;5001943;28;20029;-65
2023/08/10 02:02:16;;;;;;;0.68;0.40;;;19.60;66.40;;;;;;5002370;28;20026;-64
2023/08/10 02:04:42;;;;;;;0.80;0.70;;;19.60;66.60;;;;;;4999950;28;20057;-68
2023/08/10 02:07:08;;;;;;;0.85;0.50;;;19.60;66.10;;;;;;5001112;28;20204;-68
2023/08/10 02:09:33;;;;;;;0.90;0.50;;;19.50;66.30;;;;;;4998031;28;20085;-68
2023/08/10 02:11:59;;;;;;;0.88;0.40;;;19.50;66.20;;;;;;4999536;28;20040;-67
2023/08/10 02:14:24;;;;;;;0.90;0.60;;;19.60;66.60;;;;;;5000194;28;20080;-64
2023/08/10 02:16:50;;;;;;;0.55;0.52;;;19.60;66.60;;;;;;5004457;28;20112;-64
2023/08/10 02:19:15;;;;;;;0.57;0.40;;;19.60;66.40;;;;;;5004181;28;20034;-64
2023/08/10 02:21:41;;;;;;;0.90;0.70;;;19.60;66.60;;;;;;5007654;28;20018;-68
2023/08/10 02:24:06;;;;;;;1.02;0.60;;;19.60;66.40;;;;;;5001261;28;20121;-69
2023/08/10 02:26:32;;;;;;;0.52;0.45;;;19.50;66.30;;;;;;5004710;28;20048;-64
2023/08/10 02:28:57;;;;;;;0.90;0.80;;;19.60;66.50;;;;;;5000985;28;20456;-67
2023/08/10 02:31:24;;;;;;;0.93;0.60;;;19.50;66.40;;;;;;5005367;28;20030;-62
2023/08/10 02:33:49;;;;;;;0.73;0.50;;;19.50;66.40;;;;;;5006312;28;20037;-68
2023/08/10 02:36:15;;;;;;;0.70;0.40;;;19.50;66.30;;;;;;5000905;28;20424;-68
2023/08/10 02:38:40;;;;;;;0.68;0.60;;;19.50;66.40;;;;;;5007527;28;20492;-67
2023/08/10 02:41:06;;;;;;;0.70;0.40;;;19.50;66.40;;;;;;5004898;28;20045;-68
2023/08/10 02:43:31;;;;;;;0.95;0.65;;;19.50;66.50;;;;;;5001341;28;20042;-63
2023/08/10 02:45:57;;;;;;;1.50;0.70;;;19.50;66.40;;;;;;5001637;28;20027;-67
2023/08/10 02:48:22;;;;;;;1.85;0.70;;;19.50;66.50;;;;;;5001247;28;20030;-68
2023/08/10 02:50:48;;;;;;;1.25;0.57;;;19.50;66.50;;;;;;5004338;28;20037;-67
2023/08/10 02:53:14;;;;;;;2.17;0.63;;;19.50;67.10;;;;;;5004243;28;20046;-68
2023/08/10 02:55:39;;;;;;;0.60;0.50;;;19.50;66.60;;;;;;5000056;28;20030;-68
2023/08/10 02:58:05;;;;;;;0.60;0.60;;;19.50;66.60;;;;;;5002008;28;20491;-68
2023/08/10 03:00:30;;;;;;;0.88;0.60;;;19.50;66.60;;;;;;5005543;28;20410;-68
2023/08/10 03:02:56;;;;;;;1.05;0.60;;;19.50;67.20;;;;;;5001115;28;20042;-67
2023/08/10 03:05:22;;;;;;;0.82;0.70;;;19.50;66.40;;;;;;4999412;28;20034;-68
2023/08/10 03:07:48;;;;;;;0.60;0.50;;;19.40;66.40;;;;;;5000919;28;20160;-64
2023/08/10 03:10:14;;;;;;;0.40;0.40;;;19.50;66.50;;;;;;5000942;28;20042;-68
2023/08/10 03:12:39;;;;;;;3.00;0.60;;;19.40;66.00;;;;;;5002098;28;20037;-67
2023/08/10 03:15:09;;;;;;;0.65;0.50;;;19.50;66.40;;;;;;5000160;28;20038;-68
2023/08/10 03:17:35;;;;;;;0.50;0.40;;;19.50;66.30;;;;;;5000809;28;20030;-67
2023/08/10 03:20:01;;;;;;;1.50;0.82;;;19.50;66.50;;;;;;4998584;28;20054;-68
2023/08/10 03:22:27;;;;;;;1.48;0.60;;;19.50;66.50;;;;;;5000100;28;20095;-67
2023/08/10 03:24:53;;;;;;;0.90;0.60;;;19.50;66.20;;;;;;4999970;28;20818;-67
2023/08/10 03:27:19;;;;;;;1.40;0.52;;;19.40;66.20;;;;;;5001240;28;20047;-67
2023/08/10 03:29:44;;;;;;;1.02;0.60;;;19.40;66.20;;;;;;5001141;28;20559;-67
2023/08/10 03:32:10;;;;;;;0.88;0.75;;;19.40;66.20;;;;;;5001269;28;20117;-67
2023/08/10 03:34:36;;;;;;;1.10;0.93;;;19.40;66.40;;;;;;5003406;28;20026;-68
2023/08/10 03:37:02;;;;;;;0.93;0.52;;;19.40;66.40;;;;;;5007302;28;20088;-68
2023/08/10 03:39:28;;;;;;;1.25;0.55;;;19.40;66.30;;;;;;5007318;28;20022;-64
2023/08/10 03:41:53;;;;;;;1.02;0.50;;;19.40;66.00;;;;;;5003929;28;20036;-66
2023/08/10 03:44:19;;;;;;;0.77;0.70;;;19.40;66.40;;;;;;5001986;28;20109;-66
2023/08/10 03:46:44;;;;;;;1.10;0.65;;;19.40;66.30;;;;;;5000718;28;20037;-68
2023/08/10 03:49:10;;;;;;;0.77;0.57;;;19.40;66.60;;;;;;5001370;28;20088;-66
2023/08/10 03:51:35;;;;;;;0.55;0.40;;;19.40;66.40;;;;;;4998413;28;20034;-64
2023/08/10 03:54:01;;;;;;;0.40;0.38;;;19.40;66.50;;;;;;5002449;28;20037;-67
2023/08/10 03:56:26;;;;;;;0.65;0.60;;;19.40;66.30;;;;;;5006662;28;20096;-66
2023/08/10 03:58:52;;;;;;;0.70;0.60;;;19.30;66.20;;;;;;5007811;28;20040;-68
2023/08/10 04:01:17;;;;;;;0.80;0.50;;;19.40;66.60;;;;;;5005864;28;20100;-67
2023/08/10 04:03:43;;;;;;;0.82;0.52;;;19.40;66.60;;;;;;5007459;28;20033;-68
2023/08/10 04:06:09;;;;;;;0.80;0.40;;;19.40;66.30;;;;;;4998362;28;20608;-69
2023/08/10 04:08:34;;;;;;;0.40;0.38;;;19.30;66.10;;;;;;5000877;28;20508;-68
2023/08/10 04:11:00;;;;;;;1.60;0.70;;;19.30;66.20;;;;;;5000023;28;20036;-67
2023/08/10 04:13:26;;;;;;;1.02;0.50;;;19.30;66.40;;;;;;5010581;28;20060;-69
2023/08/10 04:15:51;;;;;;;2.53;0.63;;;19.30;66.40;;;;;;4997773;28;20063;-67
2023/08/10 04:18:17;;;;;;;0.93;0.70;;;19.30;66.40;;;;;;4999182;28;20307;-69
2023/08/10 04:20:42;;;;;;;1.02;0.52;;;19.30;66.00;;;;;;4999543;28;20095;-67
2023/08/10 04:23:08;;;;;;;0.93;0.50;;;19.40;66.30;;;;;;5001349;28;20037;-68
2023/08/10 04:25:33;;;;;;;0.75;0.60;;;19.30;66.20;;;;;;5002209;28;20037;-67
2023/08/10 04:27:59;;;;;;;1.83;0.70;;;19.40;66.60;;;;;;5006907;28;20033;-68
2023/08/10 04:30:29;;;;;;;1.10;0.50;;;19.40;66.40;;;;;;5001516;28;20303;-68
2023/08/10 04:32:57;;;;;;;0.80;0.60;;;19.40;66.50;;;;;;4997042;28;20105;-67
2023/08/10 04:35:23;;;;;;;2.05;0.60;;;19.40;66.00;;;;;;4996511;28;20097;-69
2023/08/10 04:37:50;;;;;;;1.88;0.60;;;19.40;66.00;;;;;;4998463;28;20473;-68
2023/08/10 04:40:16;;;;;;;0.77;0.40;;;19.40;66.00;;;;;;5004444;28;20022;-68
2023/08/10 04:42:41;;;;;;;1.00;0.70;;;19.40;66.00;;;;;;5000806;28;20045;-69
2023/08/10 04:45:09;;;;;;;1.10;0.80;;;19.50;65.60;;;;;;5006646;28;20041;-68
2023/08/10 04:47:35;;;;;;;0.60;0.57;;;19.50;65.80;;;;;;4994958;28;20501;-69
2023/08/10 04:50:02;;;;;;;0.50;0.50;;;19.50;65.80;;;;;;4997766;28;20048;-69
2023/08/10 04:52:28;;;;;;;0.60;0.40;;;19.50;65.50;;;;;;5002171;28;20355;-67
2023/08/10 04:54:54;;;;;;;0.60;0.50;;;19.50;65.50;;;;;;4993055;28;20030;-67
2023/08/10 04:57:19;;;;;;;0.82;0.60;;;19.50;65.80;;;;;;5000683;28;20037;-69
2023/08/10 04:59:45;;;;;;;0.50;0.47;;;19.60;65.50;;;;;;5001262;28;20022;-69
2023/08/10 05:02:10;;;;;;;1.65;0.52;;;19.60;65.50;;;;;;5000673;28;20112;-70
2023/08/10 05:04:36;;;;;;;1.45;0.60;;;19.60;65.90;;;;;;4999889;28;20026;-67
2023/08/10 05:07:01;;;;;;;1.63;1.13;;;19.70;65.80;;;;;;4993432;28;20440;-69
2023/08/10 05:09:27;;;;;;;1.98;0.80;;;19.70;65.90;;;;;;4997090;28;20022;-70
2023/08/10 05:11:52;;;;;;;2.95;0.50;;;19.70;66.00;;;;;;4986991;28;20034;-67
2023/08/10 05:14:18;;;;;;;2.05;0.70;;;19.80;66.30;;;;;;4996327;28;20416;-66
2023/08/10 05:16:43;;;;;;;6.30;0.95;;;19.80;66.20;;;;;;5000168;28;20030;-67
2023/08/10 05:19:09;;;;;;;7.70;1.00;;;19.90;66.50;;;;;;4997782;28;20037;-67
2023/08/10 05:21:34;;;;;;;2.08;0.77;;;19.90;66.50;;;;;;4997079;28;20041;-69
2023/08/10 05:24:00;;;;;;;4.85;0.85;;;19.90;66.50;;;;;;4997183;28;20038;-68
2023/08/10 05:26:27;;;;;;;2.55;1.00;;;20.00;66.60;;;;;;4994939;28;20501;-69
2023/08/10 05:28:52;;;;;;;3.50;0.68;;;20.00;66.70;;;;;;4999456;28;20113;-68
2023/08/10 05:31:18;;;;;;;2.38;0.60;;;20.00;67.30;;;;;;4999630;28;20164;-67
2023/08/10 05:33:44;;;;;;;3.88;1.35;;;20.00;66.60;;;;;;5004822;28;20034;-69
2023/08/10 05:36:09;;;;;;;4.25;1.85;;;20.00;66.70;;;;;;4997808;28;20030;-67
2023/08/10 05:38:35;;;;;;;6.43;2.80;;;20.00;66.90;;;;;;4998063;28;20042;-66
2023/08/10 05:41:01;;;;;;;6.05;3.53;;;20.00;66.70;;;;;;4998061;28;20026;-65
2023/08/10 05:43:26;;;;;;;5.82;3.28;;;20.00;66.90;;;;;;5001387;28;20507;-67
2023/08/10 05:45:52;;;;;;;4.50;2.72;;;20.00;67.60;;;;;;4998670;28;20065;-70
2023/08/10 05:48:18;;;;;;;2.97;2.28;;;20.00;66.90;;;;;;4997696;28;20034;-66
2023/08/10 05:50:43;;;;;;;3.42;1.95;;;20.00;66.90;;;;;;4999485;28;20026;-66
2023/08/10 05:53:09;;;;;;;3.42;2.05;;;20.00;66.90;;;;;;5000961;28;20038;-65
2023/08/10 05:55:34;;;;;;;3.25;1.70;;;20.00;66.80;;;;;;4997344;28;20030;-67
2023/08/10 05:58:00;;;;;;;3.60;2.20;;;20.00;66.80;;;;;;5003051;28;20101;-66
2023/08/10 06:00:29;;;;;;;3.17;1.77;;;20.00;66.90;;;;;;5004874;28;20034;-68
2023/08/10 06:02:54;;;;;;;2.65;1.42;;;20.00;66.90;;;;;;5001544;28;20439;-68
2023/08/10 06:05:20;;;;;;;4.07;1.48;;;20.00;66.80;;;;;;5002636;28;20030;-66
2023/08/10 06:07:47;;;;;;;2.17;1.48;;;20.00;66.30;;;;;;5002162;28;20037;-67
2023/08/10 06:10:14;;;;;;;3.42;1.40;;;20.00;66.30;;;;;;4999787;28;20405;-67
2023/08/10 06:12:41;;;;;;;2.05;1.20;;;20.00;66.10;;;;;;5003358;28;20041;-67
2023/08/10 06:15:10;;;;;;;1.40;1.10;;;20.00;66.00;;;;;;5001097;28;20030;-68
2023/08/10 06:17:37;;;;;;;2.78;1.35;;;20.00;66.20;;;;;;5000143;28;20045;-66
2023/08/10 06:20:21;;;;;;;3.22;0.80;;;20.00;65.30;;;;;;5002071;28;20088;-67
2023/08/10 06:22:48;;;;;;;3.88;1.00;;;19.90;63.80;;;;;;5002034;28;20041;-68
2023/08/10 06:25:14;;;;;;;1.40;0.88;;;19.80;63.00;;;;;;4997558;28;20027;-68
2023/08/10 06:27:40;;;;;;;4.18;1.13;;;19.80;62.60;;;;;;5000427;28;20030;-67
2023/08/10 06:30:06;;;;;;;2.40;1.17;;;19.80;62.90;;;;;;5004128;28;20037;-67
2023/08/10 06:32:34;;;;;;;2.05;0.95;;;19.80;63.20;;;;;;5001646;28;20053;-69
2023/08/10 06:34:59;;;;;;;4.18;1.35;;;19.90;63.10;;;;;;5001215;28;20839;-67
2023/08/10 06:37:25;;;;;;;2.92;1.08;;;19.90;63.20;;;;;;4999563;28;20185;-67
2023/08/10 06:39:51;;;;;;;12.73;5.10;;;19.90;63.20;;;;;;4998962;28;20030;-67
2023/08/10 06:42:17;;;;;;;14.52;6.65;;;19.90;63.80;;;;;;5000148;28;20034;-68
2023/08/10 06:44:43;;;;;;;18.73;6.40;;;19.90;64.40;;;;;;4997646;28;20176;-67
2023/08/10 06:47:10;;;;;;;12.05;6.30;;;19.90;64.60;;;;;;4997503;28;20033;-67
2023/08/10 06:49:39;;;;;;;14.18;7.10;;;19.90;64.90;;;;;;4996459;28;20034;-67
2023/08/10 06:52:04;;;;;;;14.45;7.15;;;19.90;65.00;;;;;;4998805;28;20116;-66
2023/08/10 06:54:31;;;;;;;15.38;6.13;;;19.90;65.30;;;;;;4995311;28;20149;-66
2023/08/10 06:56:57;;;;;;;14.75;6.40;;;20.00;65.30;;;;;;4998182;28;20397;-66
2023/08/10 06:59:22;;;;;;;10.75;5.72;;;19.90;65.80;;;;;;5002982;28;20621;-66
2023/08/10 07:01:48;;;;;;;13.65;5.60;;;19.90;65.20;;;;;;5002917;28;20049;-66
2023/08/10 07:04:14;;;;;;;11.60;5.25;;;19.90;65.20;;;;;;5001043;28;20039;-67
2023/08/10 07:06:39;;;;;;;10.93;4.72;;;19.90;65.20;;;;;;4999181;28;20065;-67
2023/08/10 07:09:05;;;;;;;7.43;3.67;;;20.00;65.40;;;;;;4997633;28;20133;-67
2023/08/10 07:11:31;;;;;;;9.68;4.43;;;19.90;65.60;;;;;;4997136;28;20133;-69
2023/08/10 07:13:56;;;;;;;7.95;3.63;;;19.90;65.50;;;;;;4996937;28;20034;-69
2023/08/10 07:16:23;;;;;;;8.48;3.92;;;19.90;65.60;;;;;;4995739;28;20138;-68
2023/08/10 07:18:49;;;;;;;13.77;4.55;;;19.90;65.40;;;;;;4997736;28;20038;-69
2023/08/10 07:21:14;;;;;;;8.57;3.22;;;19.90;65.40;;;;;;5002754;28;20056;-67
2023/08/10 07:23:40;;;;;;;6.78;2.92;;;19.90;65.30;;;;;;5001394;28;20149;-69
2023/08/10 07:26:05;;;;;;;7.32;2.95;;;19.90;65.20;;;;;;4995932;28;20065;-68
2023/08/10 07:28:31;;;;;;;7.78;3.10;;;20.00;65.40;;;;;;4998386;28;20641;-67
2023/08/10 07:30:58;;;;;;;6.68;2.88;;;19.90;64.80;;;;;;5002929;28;20456;-68
2023/08/10 07:33:24;;;;;;;5.60;2.50;;;19.90;65.00;;;;;;4998886;28;20089;-68
2023/08/10 07:35:49;;;;;;;4.70;2.63;;;19.90;65.30;;;;;;5001208;28;20033;-69
2023/08/10 07:38:16;;;;;;;4.65;2.50;;;19.90;65.40;;;;;;4997749;28;20034;-66
2023/08/10 07:40:42;;;;;;;5.28;2.10;;;19.90;65.50;;;;;;4992627;28;20184;-70
2023/08/10 07:43:08;;;;;;;4.80;2.42;;;19.90;65.40;;;;;;4997201;28;20035;-68
2023/08/10 07:45:33;;;;;;;6.45;2.40;;;19.90;65.40;;;;;;4993085;28;20030;-67
2023/08/10 07:47:59;;;;;;;3.20;2.00;;;19.90;65.50;;;;;;4996915;28;20035;-68
2023/08/10 07:50:26;;;;;;;6.47;2.47;;;19.90;65.30;;;;;;4995755;28;20056;-67
2023/08/10 07:52:51;;;;;;;5.97;2.05;;;19.90;65.20;;;;;;4992994;28;20146;-66
2023/08/10 07:55:17;;;;;;;4.30;2.35;;;19.90;64.40;;;;;;4988898;28;20530;-67
2023/08/10 07:57:42;;;;;;;4.97;2.17;;;19.90;64.80;;;;;;4999012;28;20026;-67
2023/08/10 08:00:10;;;;;;;3.67;1.90;;;19.90;65.30;;;;;;4993978;28;20027;-68
2023/08/10 08:02:36;;;;;;;4.63;1.95;;;19.90;65.40;;;;;;4995232;28;20096;-68
2023/08/10 08:05:02;;;;;;;3.25;1.90;;;19.90;64.80;;;;;;4996523;28;20095;-68
2023/08/10 08:07:30;;;;;;;2.92;2.05;;;19.90;65.10;;;;;;4993160;28;20069;-68
2023/08/10 08:09:57;;;;;;;5.65;2.53;;;19.90;64.90;;;;;;4997646;28;20029;-66
2023/08/10 08:12:23;;;;;;;5.72;2.15;;;19.90;64.90;;;;;;4994790;28;20037;-67
2023/08/10 08:14:48;;;;;;;9.32;1.50;;;19.90;65.30;;;;;;4995497;28;20532;-68
2023/08/10 08:17:14;;;;;;;3.03;1.60;;;19.90;65.50;;;;;;4997291;28;20116;-68
2023/08/10 08:19:40;;;;;;;4.93;1.65;;;19.90;65.20;;;;;;4993625;28;20653;-67
2023/08/10 08:22:05;;;;;;;2.50;1.40;;;19.90;65.80;;;;;;4995186;28;20110;-68
2023/08/10 08:24:31;;;;;;;1.45;1.33;;;19.90;65.70;;;;;;4999268;28;20518;-68
2023/08/10 08:26:56;;;;;;;3.28;1.70;;;19.90;65.70;;;;;;5002792;28;20026;-67
2023/08/10 08:29:23;;;;;;;4.38;1.80;;;19.90;65.80;;;;;;5000030;28;20030;-67
2023/08/10 08:31:49;;;;;;;4.75;1.45;;;19.90;65.30;;;;;;5001777;28;20227;-68
2023/08/10 08:34:15;;;;;;;3.40;1.70;;;19.90;64.10;;;;;;4999840;28;20042;-67
2023/08/10 08:36:41;;;;;;;2.78;1.75;;;19.90;64.70;;;;;;4998384;28;20041;-67
2023/08/10 08:39:06;;;;;;;2.58;1.70;;;19.90;65.40;;;;;;4996896;28;20022;-67
2023/08/10 08:41:37;;;;;;;2.55;1.70;;;19.90;64.70;;;;;;4996293;28;20133;-68
2023/08/10 08:44:04;;;;;;;4.50;1.75;;;19.80;65.10;;;;;;4998255;28;20092;-67
2023/08/10 08:46:32;;;;;;;2.72;1.52;;;19.90;64.70;;;;;;4995160;28;20091;-67
2023/08/10 08:48:58;;;;;;;5.35;2.80;;;19.90;64.10;;;;;;4998761;28;20054;-67
2023/08/10 08:51:23;;;;;;;5.45;1.77;;;19.90;63.50;;;;;;5000399;28;20132;-67
2023/08/10 08:53:52;;;;;;;4.03;1.45;;;19.90;64.70;;;;;;5002445;28;20457;-66
2023/08/10 08:56:18;;;;;;;3.42;1.52;;;19.90;64.90;;;;;;4998710;28;20493;-66
2023/08/10 08:58:44;;;;;;;3.38;1.98;;;19.90;64.90;;;;;;5002337;28;20109;-67
2023/08/10 09:01:11;;;;;;;6.40;1.83;;;19.90;63.40;;;;;;4999828;28;20644;-66
2023/08/10 09:03:37;;;;;;;8.60;1.50;;;19.90;64.40;;;;;;4996666;28;20607;-67
2023/08/10 09:06:03;;;;;;;6.40;1.73;;;19.90;64.60;;;;;;4996300;28;20096;-67
2023/08/10 09:08:29;;;;;;;2.60;1.55;;;19.90;64.90;;;;;;4996461;28;20470;-67
2023/08/10 09:10:55;;;;;;;4.22;1.50;;;19.90;64.00;;;;;;4994293;28;20118;-69
2023/08/10 09:13:22;;;;;;;3.95;1.45;;;19.90;63.70;;;;;;4993834;28;20116;-68
2023/08/10 09:16:07;;;;;;;5.20;1.20;;;19.90;64.80;;;;;;4996567;28;20026;-66
2023/08/10 09:18:34;;;;;;;3.60;1.20;;;19.90;65.10;;;;;;4994641;28;20516;-67
2023/08/10 09:21:29;;;;;;;4.22;1.60;;;19.90;65.10;;;;;;4999724;28;20036;-67
2023/08/10 09:23:55;;;;;;;3.42;1.75;;;19.90;65.10;;;;;;4998476;28;20594;-67
2023/08/10 09:26:22;;;;;;;6.38;1.38;;;19.80;64.70;;;;;;4997701;28;20038;-68
2023/08/10 09:28:49;;;;;;;3.10;1.55;;;19.90;64.60;;;;;;5000493;28;20038;-67
2023/08/10 09:31:27;;;;;;;3.42;1.52;;;19.80;64.90;;;;;;4998743;28;20076;-67
2023/08/10 09:33:59;;;;;;;3.17;1.27;;;19.90;65.00;;;;;;4997028;28;20038;-67
2023/08/10 09:36:26;;;;;;;2.63;1.42;;;19.80;64.80;;;;;;5005674;28;20151;-68
2023/08/10 09:38:53;;;;;;;3.60;1.40;;;19.90;65.00;;;;;;5004617;28;20030;-68
2023/08/10 09:41:20;;;;;;;3.55;1.80;;;19.90;65.10;;;;;;5005456;28;20064;-68
2023/08/10 09:43:46;;;;;;;3.42;1.75;;;19.80;65.00;;;;;;5003660;28;20084;-68
2023/08/10 09:46:14;;;;;;;3.92;1.75;;;19.90;64.50;;;;;;5004177;28;20052;-68
2023/08/10 09:48:48;;;;;;;3.40;1.60;;;19.80;64.20;;;;;;5004310;28;20030;-69
2023/08/10 09:51:14;;;;;;;5.35;2.42;;;19.80;64.90;;;;;;5006266;28;20069;-68
2023/08/10 09:53:40;;;;;;;4.35;1.63;;;19.80;63.70;;;;;;5000660;28;20029;-68
2023/08/10 09:56:07;;;;;;;3.53;1.63;;;19.80;64.30;;;;;;5014175;28;20754;-67
2023/08/10 09:58:34;;;;;;;3.83;1.40;;;19.80;64.90;;;;;;5004731;28;20496;-68
2023/08/10 10:01:00;;;;;;;2.67;1.92;;;19.80;64.40;;;;;;5004707;28;20088;-67
2023/08/10 10:03:31;;;;;;;5.28;2.03;;;19.80;64.70;;;;;;5006277;28;20404;-68
2023/08/10 10:05:57;;;;;;;3.20;1.60;;;19.80;65.00;;;;;;5005101;28;20084;-69
2023/08/10 10:08:24;;;;;;;4.10;1.88;;;19.80;63.80;;;;;;5003912;28;20053;-68
2023/08/10 10:10:49;;;;;;;5.57;2.22;;;19.80;63.10;;;;;;5006695;28;20037;-66
2023/08/10 10:13:16;;;;;;;4.65;2.10;;;19.80;63.70;;;;;;5007190;28;20038;-66
2023/08/10 10:15:45;;;;;;;3.47;1.80;;;19.80;63.30;;;;;;5003422;28;20030;-67
2023/08/10 10:18:12;;;;;;;3.35;1.73;;;19.80;64.20;;;;;;5004658;28;20034;-68
2023/08/10 10:20:39;;;;;;;3.00;1.50;;;19.80;63.90;;;;;;5001885;28;20072;-67
2023/08/10 10:23:14;;;;;;;4.70;1.98;;;19.80;64.60;;;;;;5004452;28;20077;-69
2023/08/10 10:25:41;;;;;;;2.25;1.60;;;19.80;64.00;;;;;;5003076;28;20026;-66
2023/08/10 10:28:16;;;;;;;4.20;1.95;;;19.80;64.80;;;;;;4998510;28;20034;-68
2023/08/10 10:30:54;;;;;;;5.45;2.03;;;19.80;64.70;;;;;;5001281;28;20076;-67
2023/08/10 10:33:22;;;;;;;3.83;1.73;;;19.80;63.40;;;;;;4999728;28;20034;-67
2023/08/10 10:36:04;;;;;;;6.97;3.20;;;19.80;64.50;;;;;;4999446;28;20112;-68
2023/08/10 10:38:30;;;;;;;2.72;2.17;;;19.80;62.60;;;;;;5004460;28;20069;-67
2023/08/10 10:40:55;;;;;;;5.38;2.17;;;19.80;64.50;;;;;;5003368;28;20064;-68
2023/08/10 10:43:21;;;;;;;2.00;1.80;;;19.80;64.90;;;;;;5002851;28;20397;-69
2023/08/10 10:45:48;;;;;;;3.63;2.05;;;19.80;64.70;;;;;;4998203;28;20093;-68
2023/08/10 10:48:14;;;;;;;2.72;1.77;;;19.80;63.70;;;;;;5007580;28;20030;-69
2023/08/10 10:50:40;;;;;;;4.18;2.10;;;19.80;64.10;;;;;;5006277;28;20038;-68
2023/08/10 10:53:13;;;;;;;3.67;2.00;;;19.80;63.40;;;;;;5009043;28;20128;-66
2023/08/10 10:55:43;;;;;;;2.03;1.40;;;19.80;63.30;;;;;;5004785;28;20624;-68
2023/08/10 10:58:14;;;;;;;3.20;1.85;;;19.80;64.30;;;;;;5000802;28;20552;-66
2023/08/10 11:00:41;;;;;;;2.33;1.92;;;19.80;64.90;;;;;;5006429;28;20030;-69
2023/08/10 11:03:09;;;;;;;3.80;1.77;;;19.80;64.50;;;;;;5007596;28;20041;-67
2023/08/10 11:05:35;;;;;;;6.18;2.08;;;19.80;64.70;;;;;;5006688;28;20045;-68
2023/08/10 11:08:05;;;;;;;5.10;2.35;;;19.80;64.70;;;;;;5006721;28;20034;-66
2023/08/10 11:10:37;;;;;;;2.92;1.92;;;19.80;62.90;;;;;;5001030;28;20107;-68
2023/08/10 11:13:07;;;;;;;3.17;2.17;;;19.80;64.70;;;;;;5002184;28;20030;-68
2023/08/10 11:15:34;;;;;;;3.78;2.65;;;19.80;64.40;;;;;;4999789;28;20141;-67
2023/08/10 11:18:00;;;;;;;2.33;1.80;;;19.70;64.10;;;;;;4999964;28;20026;-67
2023/08/10 11:20:26;;;;;;;3.88;2.25;;;19.80;64.80;;;;;;5003659;28;20044;-67
2023/08/10 11:22:53;;;;;;;7.03;2.45;;;19.80;64.00;;;;;;5001974;28;20301;-66
2023/08/10 11:25:23;;;;;;;5.07;2.50;;;19.80;63.30;;;;;;5003882;28;20037;-67
2023/08/10 11:27:51;;;;;;;2.42;2.22;;;19.90;62.70;;;;;;4999198;28;20055;-68
2023/08/10 11:30:18;;;;;;;2.67;1.75;;;19.80;64.20;;;;;;5000884;28;20038;-67
2023/08/10 11:32:48;;;;;;;2.58;1.90;;;19.80;64.30;;;;;;5002287;28;20493;-67
2023/08/10 11:35:18;;;;;;;2.92;1.90;;;19.90;65.20;;;;;;4999650;28;20041;-67
2023/08/10 11:37:44;;;;;;;4.00;2.00;;;19.90;65.40;;;;;;4998288;28;20018;-67
2023/08/10 11:40:13;;;;;;;3.25;1.73;;;19.90;65.20;;;;;;4998504;28;20034;-67
2023/08/10 11:42:47;;;;;;;3.40;2.10;;;19.90;65.00;;;;;;4997749;28;20062;-67
2023/08/10 11:45:20;;;;;;;3.67;2.10;;;19.90;64.60;;;;;;5000432;28;20030;-67
2023/08/10 11:48:00;;;;;;;2.58;2.20;;;19.90;64.80;;;;;;4996056;28;20026;-67
2023/08/10 11:50:29;;;;;;;3.60;1.85;;;19.90;64.40;;;;;;4999589;28;20045;-67
2023/08/10 11:52:56;;;;;;;5.32;2.05;;;19.90;65.00;;;;;;5001551;28;20046;-68
2023/08/10 11:55:21;;;;;;;2.92;1.95;;;19.90;65.20;;;;;;5002711;28;20021;-68
2023/08/10 11:57:50;;;;;;;3.70;1.90;;;19.90;65.30;;;;;;4998019;28;20026;-69
2023/08/10 12:00:30;;;;;;;3.75;2.15;;;19.90;65.90;;;;;;5000427;28;20504;-68
2023/08/10 12:03:22;;;;;;;2.75;2.45;;;19.90;65.50;;;;;;4999635;28;20069;-68
2023/08/10 12:05:52;;;;;;;4.55;2.72;;;19.90;64.90;;;;;;5000156;28;20049;-67
2023/08/10 12:08:23;;;;;;;4.53;2.42;;;19.90;65.20;;;;;;5000141;28;20053;-68
2023/08/10 12:11:01;;;;;;;3.30;2.10;;;19.90;63.90;;;;;;4996691;28;20052;-67
2023/08/10 12:13:26;;;;;;;5.28;2.42;;;19.90;64.40;;;;;;4995609;28;20030;-67
2023/08/10 12:15:53;;;;;;;4.68;2.38;;;19.90;64.60;;;;;;4997179;28;20037;-68
2023/08/10 12:18:20;;;;;;;3.20;2.85;;;19.90;64.50;;;;;;5002772;28;20096;-68
2023/08/10 12:20:51;;;;;;;3.38;3.08;;;19.80;64.10;;;;;;4999613;28;20056;-68
2023/08/10 12:23:17;;;;;;;3.80;2.60;;;19.80;61.40;;;;;;5003463;28;20022;-68
2023/08/10 12:25:44;;;;;;;4.13;3.17;;;19.80;62.00;;;;;;5000761;28;20062;-67
2023/08/10 12:28:10;;;;;;;4.55;2.92;;;19.80;61.90;;;;;;4999937;28;20741;-68
2023/08/10 12:30:37;;;;;;;5.43;2.90;;;19.80;61.00;;;;;;4999064;28;20042;-68
2023/08/10 12:33:04;;;;;;;3.38;2.75;;;19.80;61.00;;;;;;5001352;28;20715;-67
2023/08/10 12:35:30;;;;;;;4.25;2.28;;;19.80;62.00;;;;;;4997731;28;20080;-67
2023/08/10 12:37:56;;;;;;;4.88;2.67;;;19.80;62.30;;;;;;4994912;28;20041;-68
2023/08/10 12:40:22;;;;;;;2.90;2.70;;;19.80;62.80;;;;;;4998772;28;20022;-67
2023/08/10 12:42:48;;;;;;;4.63;2.92;;;19.80;62.80;;;;;;4994984;28;20058;-68
2023/08/10 12:45:14;;;;;;;2.97;2.65;;;19.80;61.70;;;;;;5001401;28;20492;-68